sensor_id;sensor_type;location;lat;lon;timestamp;P1;durP1;ratioP1;P2;durP2;ratioP2
17347;SDS011;8791;50.876;4.342;2024-01-10T00:00:05;9.43;;;5.67;;
17347;SDS011;8791;50.876;4.342;2024-01-10T00:02:33;7.03;;;4.60;;
17347;SDS011;8791;50.876;4.342;2024-01-10T00:05:00;9.77;;;4.83;;
17347;SDS011;8791;50.876;4.342;2024-01-10T00:07:28;14.67;;;5.77;;
17347;SDS011;8791;50.876;4.342;2024-01-10T00:09:55;13.23;;;5.87;;
17347;SDS011;8791;50.876;4.342;2024-01-10T00:12:24;10.63;;;5.60;;
17347;SDS011;8791;50.876;4.342;2024-01-10T00:14:53;9.77;;;5.40;;
17347;SDS011;8791;50.876;4.342;2024-01-10T00:17:20;12.10;;;5.57;;
17347;SDS011;8791;50.876;4.342;2024-01-10T00:19:47;10.20;;;5.90;;
17347;SDS011;8791;50.876;4.342;2024-01-10T00:22:13;11.10;;;5.87;;
17347;SDS011;8791;50.876;4.342;2024-01-10T00:24:39;9.37;;;5.77;;
17347;SDS011;8791;50.876;4.342;2024-01-10T00:27:06;8.63;;;5.47;;
17347;SDS011;8791;50.876;4.342;2024-01-10T00:29:35;9.80;;;5.40;;
17347;SDS011;8791;50.876;4.342;2024-01-10T00:32:03;12.57;;;5.37;;
17347;SDS011;8791;50.876;4.342;2024-01-10T00:34:31;9.37;;;5.60;;
17347;SDS011;8791;50.876;4.342;2024-01-10T00:36:58;11.23;;;5.47;;
17347;SDS011;8791;50.876;4.342;2024-01-10T00:39:25;11.40;;;5.60;;
17347;SDS011;8791;50.876;4.342;2024-01-10T00:41:52;10.27;;;6.20;;
17347;SDS011;8791;50.876;4.342;2024-01-10T00:44:19;8.83;;;5.70;;
17347;SDS011;8791;50.876;4.342;2024-01-10T00:46:46;12.03;;;5.50;;
17347;SDS011;8791;50.876;4.342;2024-01-10T00:49:14;11.90;;;5.47;;
17347;SDS011;8791;50.876;4.342;2024-01-10T00:51:41;10.43;;;5.70;;
17347;SDS011;8791;50.876;4.342;2024-01-10T00:54:08;13.90;;;6.47;;
17347;SDS011;8791;50.876;4.342;2024-01-10T00:56:35;11.47;;;5.93;;
17347;SDS011;8791;50.876;4.342;2024-01-10T00:59:01;9.23;;;5.83;;
17347;SDS011;8791;50.876;4.342;2024-01-10T01:01:28;12.67;;;6.47;;
17347;SDS011;8791;50.876;4.342;2024-01-10T01:03:55;10.60;;;5.53;;
17347;SDS011;8791;50.876;4.342;2024-01-10T01:06:24;8.97;;;5.80;;
17347;SDS011;8791;50.876;4.342;2024-01-10T01:08:51;14.23;;;6.27;;
17347;SDS011;8791;50.876;4.342;2024-01-10T01:11:18;9.47;;;5.60;;
17347;SDS011;8791;50.876;4.342;2024-01-10T01:13:45;11.97;;;6.07;;
17347;SDS011;8791;50.876;4.342;2024-01-10T01:16:12;11.53;;;6.47;;
17347;SDS011;8791;50.876;4.342;2024-01-10T01:18:39;9.50;;;5.40;;
17347;SDS011;8791;50.876;4.342;2024-01-10T01:21:07;11.57;;;6.10;;
17347;SDS011;8791;50.876;4.342;2024-01-10T01:23:35;11.63;;;6.37;;
17347;SDS011;8791;50.876;4.342;2024-01-10T01:26:02;8.80;;;6.17;;
17347;SDS011;8791;50.876;4.342;2024-01-10T01:28:30;10.67;;;6.17;;
17347;SDS011;8791;50.876;4.342;2024-01-10T01:30:57;10.07;;;5.73;;
17347;SDS011;8791;50.876;4.342;2024-01-10T01:33:24;12.07;;;5.90;;
17347;SDS011;8791;50.876;4.342;2024-01-10T01:35:51;11.37;;;6.00;;
17347;SDS011;8791;50.876;4.342;2024-01-10T01:38:19;11.83;;;5.47;;
17347;SDS011;8791;50.876;4.342;2024-01-10T01:40:47;14.73;;;6.10;;
17347;SDS011;8791;50.876;4.342;2024-01-10T01:43:18;14.70;;;5.90;;
17347;SDS011;8791;50.876;4.342;2024-01-10T01:45:46;10.93;;;5.67;;
17347;SDS011;8791;50.876;4.342;2024-01-10T01:48:16;10.93;;;5.50;;
17347;SDS011;8791;50.876;4.342;2024-01-10T01:50:44;17.77;;;5.60;;
17347;SDS011;8791;50.876;4.342;2024-01-10T01:53:12;13.80;;;7.10;;
17347;SDS011;8791;50.876;4.342;2024-01-10T01:55:39;14.93;;;6.53;;
17347;SDS011;8791;50.876;4.342;2024-01-10T01:58:08;13.93;;;6.17;;
17347;SDS011;8791;50.876;4.342;2024-01-10T02:00:35;9.93;;;6.03;;
17347;SDS011;8791;50.876;4.342;2024-01-10T02:03:03;14.00;;;6.27;;
17347;SDS011;8791;50.876;4.342;2024-01-10T02:05:31;14.37;;;6.47;;
17347;SDS011;8791;50.876;4.342;2024-01-10T02:07:59;11.00;;;5.77;;
17347;SDS011;8791;50.876;4.342;2024-01-10T02:10:25;11.60;;;6.30;;
17347;SDS011;8791;50.876;4.342;2024-01-10T02:12:52;11.80;;;5.77;;
17347;SDS011;8791;50.876;4.342;2024-01-10T02:15:21;11.57;;;5.60;;
17347;SDS011;8791;50.876;4.342;2024-01-10T02:17:48;7.97;;;5.30;;
17347;SDS011;8791;50.876;4.342;2024-01-10T02:20:15;10.20;;;6.03;;
17347;SDS011;8791;50.876;4.342;2024-01-10T02:22:42;12.17;;;5.77;;
17347;SDS011;8791;50.876;4.342;2024-01-10T02:25:11;15.63;;;6.80;;
17347;SDS011;8791;50.876;4.342;2024-01-10T02:27:39;14.07;;;6.00;;
17347;SDS011;8791;50.876;4.342;2024-01-10T02:30:07;14.97;;;6.43;;
17347;SDS011;8791;50.876;4.342;2024-01-10T02:32:36;8.97;;;5.67;;
17347;SDS011;8791;50.876;4.342;2024-01-10T02:35:03;7.57;;;5.30;;
17347;SDS011;8791;50.876;4.342;2024-01-10T02:37:31;13.83;;;6.40;;
17347;SDS011;8791;50.876;4.342;2024-01-10T02:39:58;7.93;;;5.77;;
17347;SDS011;8791;50.876;4.342;2024-01-10T02:42:27;10.67;;;6.23;;
17347;SDS011;8791;50.876;4.342;2024-01-10T02:44:55;10.53;;;5.93;;
17347;SDS011;8791;50.876;4.342;2024-01-10T02:47:22;13.17;;;6.80;;
17347;SDS011;8791;50.876;4.342;2024-01-10T02:49:49;11.23;;;6.47;;
17347;SDS011;8791;50.876;4.342;2024-01-10T02:52:16;14.33;;;6.40;;
17347;SDS011;8791;50.876;4.342;2024-01-10T02:54:45;17.67;;;6.70;;
17347;SDS011;8791;50.876;4.342;2024-01-10T02:57:12;11.03;;;5.50;;
17347;SDS011;8791;50.876;4.342;2024-01-10T02:59:40;9.80;;;6.33;;
17347;SDS011;8791;50.876;4.342;2024-01-10T03:02:07;9.53;;;6.30;;
17347;SDS011;8791;50.876;4.342;2024-01-10T03:04:34;11.23;;;5.83;;
17347;SDS011;8791;50.876;4.342;2024-01-10T03:07:01;11.67;;;6.27;;
17347;SDS011;8791;50.876;4.342;2024-01-10T03:09:28;12.27;;;6.17;;
17347;SDS011;8791;50.876;4.342;2024-01-10T03:11:55;13.47;;;5.63;;
17347;SDS011;8791;50.876;4.342;2024-01-10T03:14:22;19.40;;;6.47;;
17347;SDS011;8791;50.876;4.342;2024-01-10T03:16:51;12.17;;;6.77;;
17347;SDS011;8791;50.876;4.342;2024-01-10T03:19:18;11.17;;;6.00;;
17347;SDS011;8791;50.876;4.342;2024-01-10T03:21:45;15.37;;;6.53;;
17347;SDS011;8791;50.876;4.342;2024-01-10T03:24:12;11.27;;;6.17;;
17347;SDS011;8791;50.876;4.342;2024-01-10T03:26:39;15.07;;;6.37;;
17347;SDS011;8791;50.876;4.342;2024-01-10T03:29:06;18.00;;;6.43;;
17347;SDS011;8791;50.876;4.342;2024-01-10T03:31:32;10.83;;;5.97;;
17347;SDS011;8791;50.876;4.342;2024-01-10T03:34:01;12.33;;;5.80;;
17347;SDS011;8791;50.876;4.342;2024-01-10T03:36:29;14.03;;;6.67;;
17347;SDS011;8791;50.876;4.342;2024-01-10T03:38:56;11.90;;;6.40;;
17347;SDS011;8791;50.876;4.342;2024-01-10T03:41:23;11.57;;;5.43;;
17347;SDS011;8791;50.876;4.342;2024-01-10T03:43:50;15.67;;;5.97;;
17347;SDS011;8791;50.876;4.342;2024-01-10T03:46:17;14.10;;;5.77;;
17347;SDS011;8791;50.876;4.342;2024-01-10T03:48:44;12.40;;;6.27;;
17347;SDS011;8791;50.876;4.342;2024-01-10T03:51:15;14.73;;;7.23;;
17347;SDS011;8791;50.876;4.342;2024-01-10T03:53:42;13.33;;;6.13;;
17347;SDS011;8791;50.876;4.342;2024-01-10T03:56:09;12.63;;;5.77;;
17347;SDS011;8791;50.876;4.342;2024-01-10T03:58:37;15.43;;;6.73;;
17347;SDS011;8791;50.876;4.342;2024-01-10T04:01:05;11.93;;;5.83;;
17347;SDS011;8791;50.876;4.342;2024-01-10T04:03:32;13.17;;;6.50;;
17347;SDS011;8791;50.876;4.342;2024-01-10T04:06:00;12.73;;;6.07;;
17347;SDS011;8791;50.876;4.342;2024-01-10T04:08:28;11.23;;;5.93;;
17347;SDS011;8791;50.876;4.342;2024-01-10T04:10:55;11.93;;;6.07;;
17347;SDS011;8791;50.876;4.342;2024-01-10T04:13:22;12.50;;;6.03;;
17347;SDS011;8791;50.876;4.342;2024-01-10T04:15:49;10.07;;;6.23;;
17347;SDS011;8791;50.876;4.342;2024-01-10T04:18:16;8.57;;;5.50;;
17347;SDS011;8791;50.876;4.342;2024-01-10T04:20:43;14.70;;;5.87;;
17347;SDS011;8791;50.876;4.342;2024-01-10T04:23:10;13.50;;;5.53;;
17347;SDS011;8791;50.876;4.342;2024-01-10T04:25:39;10.13;;;5.73;;
17347;SDS011;8791;50.876;4.342;2024-01-10T04:28:06;10.23;;;6.30;;
17347;SDS011;8791;50.876;4.342;2024-01-10T04:30:32;12.33;;;6.50;;
17347;SDS011;8791;50.876;4.342;2024-01-10T04:32:59;12.63;;;5.97;;
17347;SDS011;8791;50.876;4.342;2024-01-10T04:35:27;11.90;;;6.20;;
17347;SDS011;8791;50.876;4.342;2024-01-10T04:37:54;10.97;;;5.90;;
17347;SDS011;8791;50.876;4.342;2024-01-10T04:40:21;13.43;;;5.77;;
17347;SDS011;8791;50.876;4.342;2024-01-10T04:42:49;11.80;;;5.33;;
17347;SDS011;8791;50.876;4.342;2024-01-10T04:45:17;14.73;;;6.10;;
17347;SDS011;8791;50.876;4.342;2024-01-10T04:47:44;12.33;;;6.27;;
17347;SDS011;8791;50.876;4.342;2024-01-10T04:50:11;9.80;;;5.87;;
17347;SDS011;8791;50.876;4.342;2024-01-10T04:52:38;9.37;;;5.70;;
17347;SDS011;8791;50.876;4.342;2024-01-10T04:55:05;14.33;;;6.13;;
17347;SDS011;8791;50.876;4.342;2024-01-10T04:57:33;16.63;;;6.40;;
17347;SDS011;8791;50.876;4.342;2024-01-10T05:00:01;12.33;;;6.43;;
17347;SDS011;8791;50.876;4.342;2024-01-10T05:02:29;12.50;;;6.13;;
17347;SDS011;8791;50.876;4.342;2024-01-10T05:04:56;11.20;;;6.30;;
17347;SDS011;8791;50.876;4.342;2024-01-10T05:07:24;18.53;;;7.20;;
17347;SDS011;8791;50.876;4.342;2024-01-10T05:09:51;14.87;;;6.20;;
17347;SDS011;8791;50.876;4.342;2024-01-10T05:12:18;11.43;;;6.00;;
17347;SDS011;8791;50.876;4.342;2024-01-10T05:14:45;10.83;;;6.10;;
17347;SDS011;8791;50.876;4.342;2024-01-10T05:17:13;10.67;;;5.43;;
17347;SDS011;8791;50.876;4.342;2024-01-10T05:19:40;13.47;;;6.27;;
17347;SDS011;8791;50.876;4.342;2024-01-10T05:22:07;10.67;;;5.97;;
17347;SDS011;8791;50.876;4.342;2024-01-10T05:24:34;11.40;;;5.83;;
17347;SDS011;8791;50.876;4.342;2024-01-10T05:27:01;12.40;;;6.77;;
17347;SDS011;8791;50.876;4.342;2024-01-10T05:29:29;11.77;;;6.90;;
17347;SDS011;8791;50.876;4.342;2024-01-10T05:31:56;10.33;;;5.80;;
17347;SDS011;8791;50.876;4.342;2024-01-10T05:34:24;12.77;;;6.23;;
17347;SDS011;8791;50.876;4.342;2024-01-10T05:36:51;13.40;;;6.63;;
17347;SDS011;8791;50.876;4.342;2024-01-10T05:39:19;11.27;;;6.00;;
17347;SDS011;8791;50.876;4.342;2024-01-10T05:41:46;9.10;;;5.47;;
17347;SDS011;8791;50.876;4.342;2024-01-10T05:44:13;14.37;;;6.30;;
17347;SDS011;8791;50.876;4.342;2024-01-10T05:46:40;12.60;;;6.57;;
17347;SDS011;8791;50.876;4.342;2024-01-10T05:49:08;13.07;;;6.03;;
17347;SDS011;8791;50.876;4.342;2024-01-10T05:51:37;11.27;;;5.63;;
17347;SDS011;8791;50.876;4.342;2024-01-10T05:54:04;8.80;;;5.63;;
17347;SDS011;8791;50.876;4.342;2024-01-10T05:56:32;16.40;;;6.10;;
17347;SDS011;8791;50.876;4.342;2024-01-10T05:58:59;10.60;;;5.93;;
17347;SDS011;8791;50.876;4.342;2024-01-10T06:01:26;15.53;;;5.90;;
17347;SDS011;8791;50.876;4.342;2024-01-10T06:03:54;16.30;;;6.33;;
17347;SDS011;8791;50.876;4.342;2024-01-10T06:06:21;10.50;;;5.77;;
17347;SDS011;8791;50.876;4.342;2024-01-10T06:08:50;10.67;;;6.17;;
17347;SDS011;8791;50.876;4.342;2024-01-10T06:11:17;13.33;;;6.37;;
17347;SDS011;8791;50.876;4.342;2024-01-10T06:13:44;15.27;;;5.93;;
17347;SDS011;8791;50.876;4.342;2024-01-10T06:16:11;10.27;;;6.00;;
17347;SDS011;8791;50.876;4.342;2024-01-10T06:18:38;18.53;;;6.20;;
17347;SDS011;8791;50.876;4.342;2024-01-10T06:21:06;11.80;;;5.80;;
17347;SDS011;8791;50.876;4.342;2024-01-10T06:23:33;11.33;;;5.90;;
17347;SDS011;8791;50.876;4.342;2024-01-10T06:26:01;16.80;;;6.73;;
17347;SDS011;8791;50.876;4.342;2024-01-10T06:28:28;14.27;;;5.97;;
17347;SDS011;8791;50.876;4.342;2024-01-10T06:30:55;13.83;;;6.40;;
17347;SDS011;8791;50.876;4.342;2024-01-10T06:33:22;14.37;;;5.90;;
17347;SDS011;8791;50.876;4.342;2024-01-10T06:35:49;11.67;;;5.80;;
17347;SDS011;8791;50.876;4.342;2024-01-10T06:38:16;12.80;;;5.63;;
17347;SDS011;8791;50.876;4.342;2024-01-10T06:40:45;20.80;;;6.70;;
17347;SDS011;8791;50.876;4.342;2024-01-10T06:43:14;10.83;;;5.33;;
17347;SDS011;8791;50.876;4.342;2024-01-10T06:45:41;8.97;;;6.10;;
17347;SDS011;8791;50.876;4.342;2024-01-10T06:48:08;12.03;;;5.17;;
17347;SDS011;8791;50.876;4.342;2024-01-10T06:50:35;9.30;;;5.93;;
17347;SDS011;8791;50.876;4.342;2024-01-10T06:53:03;12.77;;;6.33;;
17347;SDS011;8791;50.876;4.342;2024-01-10T06:55:30;11.03;;;5.87;;
17347;SDS011;8791;50.876;4.342;2024-01-10T06:57:57;9.97;;;6.07;;
17347;SDS011;8791;50.876;4.342;2024-01-10T07:00:26;10.43;;;5.63;;
17347;SDS011;8791;50.876;4.342;2024-01-10T07:02:53;11.07;;;5.57;;
17347;SDS011;8791;50.876;4.342;2024-01-10T07:05:20;11.93;;;5.97;;
17347;SDS011;8791;50.876;4.342;2024-01-10T07:07:47;12.33;;;6.30;;
17347;SDS011;8791;50.876;4.342;2024-01-10T07:10:14;8.70;;;5.20;;
17347;SDS011;8791;50.876;4.342;2024-01-10T07:12:41;8.30;;;5.27;;
17347;SDS011;8791;50.876;4.342;2024-01-10T07:15:08;11.40;;;5.97;;
17347;SDS011;8791;50.876;4.342;2024-01-10T07:17:37;21.40;;;6.23;;
17347;SDS011;8791;50.876;4.342;2024-01-10T07:20:05;7.50;;;5.50;;
17347;SDS011;8791;50.876;4.342;2024-01-10T07:22:34;10.67;;;6.43;;
17347;SDS011;8791;50.876;4.342;2024-01-10T07:25:01;242.00;;;20.47;;
17347;SDS011;8791;50.876;4.342;2024-01-10T07:27:28;21.00;;;6.30;;
17347;SDS011;8791;50.876;4.342;2024-01-10T07:29:55;14.53;;;5.73;;
17347;SDS011;8791;50.876;4.342;2024-01-10T07:32:22;12.07;;;6.13;;
17347;SDS011;8791;50.876;4.342;2024-01-10T07:34:51;14.47;;;5.70;;
17347;SDS011;8791;50.876;4.342;2024-01-10T07:37:18;20.97;;;6.60;;
17347;SDS011;8791;50.876;4.342;2024-01-10T07:39:47;16.93;;;6.77;;
17347;SDS011;8791;50.876;4.342;2024-01-10T07:42:15;13.20;;;6.57;;
17347;SDS011;8791;50.876;4.342;2024-01-10T07:44:43;9.93;;;5.97;;
17347;SDS011;8791;50.876;4.342;2024-01-10T07:47:10;14.33;;;6.93;;
17347;SDS011;8791;50.876;4.342;2024-01-10T07:49:37;26.87;;;7.20;;
17347;SDS011;8791;50.876;4.342;2024-01-10T07:52:05;16.30;;;6.40;;
17347;SDS011;8791;50.876;4.342;2024-01-10T07:54:32;14.60;;;6.37;;
17347;SDS011;8791;50.876;4.342;2024-01-10T07:56:59;12.93;;;6.63;;
17347;SDS011;8791;50.876;4.342;2024-01-10T07:59:27;16.53;;;5.70;;
17347;SDS011;8791;50.876;4.342;2024-01-10T08:01:54;16.33;;;6.67;;
17347;SDS011;8791;50.876;4.342;2024-01-10T08:04:23;15.10;;;6.30;;
17347;SDS011;8791;50.876;4.342;2024-01-10T08:06:51;12.67;;;5.93;;
17347;SDS011;8791;50.876;4.342;2024-01-10T08:09:19;22.20;;;7.03;;
17347;SDS011;8791;50.876;4.342;2024-01-10T08:11:46;12.73;;;6.30;;
17347;SDS011;8791;50.876;4.342;2024-01-10T08:14:14;12.37;;;6.07;;
17347;SDS011;8791;50.876;4.342;2024-01-10T08:16:41;14.07;;;6.27;;
17347;SDS011;8791;50.876;4.342;2024-01-10T08:19:09;12.57;;;6.50;;
17347;SDS011;8791;50.876;4.342;2024-01-10T08:21:37;18.83;;;7.37;;
17347;SDS011;8791;50.876;4.342;2024-01-10T08:24:04;23.60;;;7.43;;
17347;SDS011;8791;50.876;4.342;2024-01-10T08:26:34;14.50;;;6.97;;
17347;SDS011;8791;50.876;4.342;2024-01-10T08:29:02;16.87;;;6.47;;
17347;SDS011;8791;50.876;4.342;2024-01-10T08:31:29;13.87;;;6.40;;
17347;SDS011;8791;50.876;4.342;2024-01-10T08:33:57;17.27;;;7.23;;
17347;SDS011;8791;50.876;4.342;2024-01-10T08:36:24;10.53;;;6.50;;
17347;SDS011;8791;50.876;4.342;2024-01-10T08:38:50;14.53;;;7.07;;
17347;SDS011;8791;50.876;4.342;2024-01-10T08:41:18;18.03;;;7.67;;
17347;SDS011;8791;50.876;4.342;2024-01-10T08:43:46;18.63;;;7.87;;
17347;SDS011;8791;50.876;4.342;2024-01-10T08:46:13;15.03;;;7.17;;
17347;SDS011;8791;50.876;4.342;2024-01-10T08:48:40;19.97;;;6.93;;
17347;SDS011;8791;50.876;4.342;2024-01-10T08:51:07;17.17;;;7.23;;
17347;SDS011;8791;50.876;4.342;2024-01-10T08:53:35;14.50;;;7.53;;
17347;SDS011;8791;50.876;4.342;2024-01-10T08:56:02;15.90;;;6.93;;
17347;SDS011;8791;50.876;4.342;2024-01-10T08:58:29;19.17;;;7.70;;
17347;SDS011;8791;50.876;4.342;2024-01-10T09:00:58;22.13;;;8.27;;
17347;SDS011;8791;50.876;4.342;2024-01-10T09:03:24;23.77;;;6.70;;
17347;SDS011;8791;50.876;4.342;2024-01-10T09:05:52;16.97;;;8.40;;
17347;SDS011;8791;50.876;4.342;2024-01-10T09:08:19;15.43;;;7.73;;
17347;SDS011;8791;50.876;4.342;2024-01-10T09:10:46;14.03;;;7.37;;
17347;SDS011;8791;50.876;4.342;2024-01-10T09:13:14;14.53;;;7.67;;
17347;SDS011;8791;50.876;4.342;2024-01-10T09:15:42;17.97;;;7.40;;
17347;SDS011;8791;50.876;4.342;2024-01-10T09:18:10;17.47;;;6.83;;
17347;SDS011;8791;50.876;4.342;2024-01-10T09:20:37;18.87;;;8.33;;
17347;SDS011;8791;50.876;4.342;2024-01-10T09:23:05;79.57;;;13.70;;
17347;SDS011;8791;50.876;4.342;2024-01-10T09:25:32;19.90;;;7.83;;
17347;SDS011;8791;50.876;4.342;2024-01-10T09:27:59;18.63;;;8.70;;
17347;SDS011;8791;50.876;4.342;2024-01-10T09:30:26;16.10;;;7.40;;
17347;SDS011;8791;50.876;4.342;2024-01-10T09:32:52;21.87;;;7.30;;
17347;SDS011;8791;50.876;4.342;2024-01-10T09:35:22;18.43;;;7.87;;
17347;SDS011;8791;50.876;4.342;2024-01-10T09:37:50;15.67;;;7.83;;
17347;SDS011;8791;50.876;4.342;2024-01-10T09:40:18;15.93;;;8.17;;
17347;SDS011;8791;50.876;4.342;2024-01-10T09:42:47;17.67;;;8.03;;
17347;SDS011;8791;50.876;4.342;2024-01-10T09:45:17;17.50;;;7.70;;
17347;SDS011;8791;50.876;4.342;2024-01-10T09:47:48;20.33;;;7.73;;
17347;SDS011;8791;50.876;4.342;2024-01-10T09:50:18;20.20;;;8.63;;
17347;SDS011;8791;50.876;4.342;2024-01-10T09:52:48;40.50;;;9.33;;
17347;SDS011;8791;50.876;4.342;2024-01-10T09:55:17;22.17;;;8.93;;
17347;SDS011;8791;50.876;4.342;2024-01-10T09:57:47;29.07;;;9.53;;
17347;SDS011;8791;50.876;4.342;2024-01-10T10:00:14;12.30;;;7.53;;
17347;SDS011;8791;50.876;4.342;2024-01-10T10:02:42;18.53;;;8.47;;
17347;SDS011;8791;50.876;4.342;2024-01-10T10:05:13;22.27;;;8.70;;
17347;SDS011;8791;50.876;4.342;2024-01-10T10:07:44;18.43;;;8.30;;
17347;SDS011;8791;50.876;4.342;2024-01-10T10:10:14;16.97;;;8.57;;
17347;SDS011;8791;50.876;4.342;2024-01-10T10:12:42;15.00;;;8.00;;
17347;SDS011;8791;50.876;4.342;2024-01-10T10:15:10;20.07;;;8.47;;
17347;SDS011;8791;50.876;4.342;2024-01-10T10:17:38;17.27;;;8.73;;
17347;SDS011;8791;50.876;4.342;2024-01-10T10:20:11;16.73;;;8.67;;
17347;SDS011;8791;50.876;4.342;2024-01-10T10:22:40;15.50;;;8.60;;
17347;SDS011;8791;50.876;4.342;2024-01-10T10:25:17;18.77;;;8.30;;
17347;SDS011;8791;50.876;4.342;2024-01-10T10:27:44;18.90;;;8.23;;
17347;SDS011;8791;50.876;4.342;2024-01-10T10:30:11;17.00;;;7.73;;
17347;SDS011;8791;50.876;4.342;2024-01-10T10:32:39;17.97;;;8.43;;
17347;SDS011;8791;50.876;4.342;2024-01-10T10:35:06;27.07;;;9.10;;
17347;SDS011;8791;50.876;4.342;2024-01-10T10:37:34;20.67;;;8.63;;
17347;SDS011;8791;50.876;4.342;2024-01-10T10:40:01;18.80;;;8.17;;
17347;SDS011;8791;50.876;4.342;2024-01-10T10:42:29;15.93;;;8.53;;
17347;SDS011;8791;50.876;4.342;2024-01-10T10:44:57;19.67;;;8.23;;
17347;SDS011;8791;50.876;4.342;2024-01-10T10:47:30;22.10;;;9.13;;
17347;SDS011;8791;50.876;4.342;2024-01-10T10:50:00;20.07;;;7.90;;
17347;SDS011;8791;50.876;4.342;2024-01-10T10:52:30;14.17;;;7.93;;
17347;SDS011;8791;50.876;4.342;2024-01-10T10:54:59;14.53;;;7.90;;
17347;SDS011;8791;50.876;4.342;2024-01-10T10:57:25;18.53;;;9.20;;
17347;SDS011;8791;50.876;4.342;2024-01-10T10:59:55;18.20;;;8.87;;
17347;SDS011;8791;50.876;4.342;2024-01-10T11:02:23;18.03;;;8.57;;
17347;SDS011;8791;50.876;4.342;2024-01-10T11:04:50;21.63;;;10.57;;
17347;SDS011;8791;50.876;4.342;2024-01-10T11:07:20;18.90;;;8.73;;
17347;SDS011;8791;50.876;4.342;2024-01-10T11:09:47;20.07;;;8.10;;
17347;SDS011;8791;50.876;4.342;2024-01-10T11:12:23;21.37;;;9.00;;
17347;SDS011;8791;50.876;4.342;2024-01-10T11:15:09;17.40;;;9.00;;
17347;SDS011;8791;50.876;4.342;2024-01-10T11:18:02;23.30;;;9.77;;
17347;SDS011;8791;50.876;4.342;2024-01-10T11:20:44;23.57;;;8.33;;
17347;SDS011;8791;50.876;4.342;2024-01-10T11:23:37;14.73;;;7.90;;
17347;SDS011;8791;50.876;4.342;2024-01-10T11:26:07;21.70;;;8.97;;
17347;SDS011;8791;50.876;4.342;2024-01-10T11:28:35;28.57;;;9.53;;
17347;SDS011;8791;50.876;4.342;2024-01-10T11:31:05;21.03;;;8.67;;
17347;SDS011;8791;50.876;4.342;2024-01-10T11:33:33;20.57;;;9.53;;
17347;SDS011;8791;50.876;4.342;2024-01-10T11:36:08;20.90;;;9.77;;
17347;SDS011;8791;50.876;4.342;2024-01-10T11:38:40;19.00;;;8.83;;
17347;SDS011;8791;50.876;4.342;2024-01-10T11:41:10;18.43;;;9.07;;
17347;SDS011;8791;50.876;4.342;2024-01-10T11:43:38;18.70;;;9.47;;
17347;SDS011;8791;50.876;4.342;2024-01-10T11:46:07;20.43;;;9.73;;
17347;SDS011;8791;50.876;4.342;2024-01-10T11:48:37;21.97;;;9.40;;
17347;SDS011;8791;50.876;4.342;2024-01-10T11:51:05;18.87;;;8.93;;
17347;SDS011;8791;50.876;4.342;2024-01-10T11:53:40;18.67;;;9.67;;
17347;SDS011;8791;50.876;4.342;2024-01-10T11:56:11;16.27;;;8.27;;
17347;SDS011;8791;50.876;4.342;2024-01-10T11:58:55;19.00;;;9.33;;
17347;SDS011;8791;50.876;4.342;2024-01-10T12:01:30;18.20;;;9.47;;
17347;SDS011;8791;50.876;4.342;2024-01-10T12:03:58;17.20;;;8.70;;
17347;SDS011;8791;50.876;4.342;2024-01-10T12:06:26;23.83;;;9.57;;
17347;SDS011;8791;50.876;4.342;2024-01-10T12:08:53;21.60;;;9.67;;
17347;SDS011;8791;50.876;4.342;2024-01-10T12:11:20;19.97;;;8.43;;
17347;SDS011;8791;50.876;4.342;2024-01-10T12:13:47;25.30;;;9.67;;
17347;SDS011;8791;50.876;4.342;2024-01-10T12:16:14;24.47;;;10.27;;
17347;SDS011;8791;50.876;4.342;2024-01-10T12:18:44;22.80;;;9.20;;
17347;SDS011;8791;50.876;4.342;2024-01-10T12:21:10;23.77;;;9.57;;
17347;SDS011;8791;50.876;4.342;2024-01-10T12:23:38;21.10;;;8.90;;
17347;SDS011;8791;50.876;4.342;2024-01-10T12:26:07;19.50;;;8.23;;
17347;SDS011;8791;50.876;4.342;2024-01-10T12:28:37;21.87;;;10.63;;
17347;SDS011;8791;50.876;4.342;2024-01-10T12:31:05;19.30;;;9.97;;
17347;SDS011;8791;50.876;4.342;2024-01-10T12:33:33;18.90;;;9.30;;
17347;SDS011;8791;50.876;4.342;2024-01-10T12:36:05;18.93;;;9.03;;
17347;SDS011;8791;50.876;4.342;2024-01-10T12:38:34;20.77;;;8.57;;
17347;SDS011;8791;50.876;4.342;2024-01-10T12:41:02;21.17;;;9.13;;
17347;SDS011;8791;50.876;4.342;2024-01-10T12:43:48;19.90;;;9.40;;
17347;SDS011;8791;50.876;4.342;2024-01-10T12:46:16;23.03;;;9.03;;
17347;SDS011;8791;50.876;4.342;2024-01-10T12:48:43;17.80;;;9.47;;
17347;SDS011;8791;50.876;4.342;2024-01-10T12:51:12;25.73;;;10.87;;
17347;SDS011;8791;50.876;4.342;2024-01-10T12:53:40;22.27;;;9.87;;
17347;SDS011;8791;50.876;4.342;2024-01-10T12:56:10;17.73;;;9.83;;
17347;SDS011;8791;50.876;4.342;2024-01-10T12:58:39;26.57;;;9.63;;
17347;SDS011;8791;50.876;4.342;2024-01-10T13:01:07;19.17;;;9.60;;
17347;SDS011;8791;50.876;4.342;2024-01-10T13:03:35;24.27;;;9.70;;
17347;SDS011;8791;50.876;4.342;2024-01-10T13:06:02;18.70;;;8.80;;
17347;SDS011;8791;50.876;4.342;2024-01-10T13:08:31;19.27;;;9.77;;
17347;SDS011;8791;50.876;4.342;2024-01-10T13:10:58;22.63;;;9.90;;
17347;SDS011;8791;50.876;4.342;2024-01-10T13:13:26;23.17;;;11.00;;
17347;SDS011;8791;50.876;4.342;2024-01-10T13:15:53;21.77;;;9.50;;
17347;SDS011;8791;50.876;4.342;2024-01-10T13:18:20;19.73;;;10.00;;
17347;SDS011;8791;50.876;4.342;2024-01-10T13:20:47;22.23;;;9.40;;
17347;SDS011;8791;50.876;4.342;2024-01-10T13:23:14;17.73;;;9.97;;
17347;SDS011;8791;50.876;4.342;2024-01-10T13:25:45;21.30;;;9.77;;
17347;SDS011;8791;50.876;4.342;2024-01-10T13:28:13;18.37;;;8.63;;
17347;SDS011;8791;50.876;4.342;2024-01-10T13:30:40;16.43;;;8.73;;
17347;SDS011;8791;50.876;4.342;2024-01-10T13:33:08;18.20;;;9.97;;
17347;SDS011;8791;50.876;4.342;2024-01-10T13:35:35;19.30;;;9.87;;
17347;SDS011;8791;50.876;4.342;2024-01-10T13:38:02;21.33;;;9.40;;
17347;SDS011;8791;50.876;4.342;2024-01-10T13:40:29;18.77;;;8.63;;
17347;SDS011;8791;50.876;4.342;2024-01-10T13:42:58;19.33;;;9.73;;
17347;SDS011;8791;50.876;4.342;2024-01-10T13:45:27;20.00;;;10.40;;
17347;SDS011;8791;50.876;4.342;2024-01-10T13:47:54;18.93;;;9.90;;
17347;SDS011;8791;50.876;4.342;2024-01-10T13:50:21;20.03;;;9.10;;
17347;SDS011;8791;50.876;4.342;2024-01-10T13:52:49;20.07;;;9.80;;
17347;SDS011;8791;50.876;4.342;2024-01-10T13:55:16;21.00;;;9.47;;
17347;SDS011;8791;50.876;4.342;2024-01-10T13:57:43;18.73;;;9.40;;
17347;SDS011;8791;50.876;4.342;2024-01-10T14:00:12;19.87;;;9.20;;
17347;SDS011;8791;50.876;4.342;2024-01-10T14:02:40;17.73;;;8.67;;
17347;SDS011;8791;50.876;4.342;2024-01-10T14:05:08;33.53;;;9.73;;
17347;SDS011;8791;50.876;4.342;2024-01-10T14:07:35;19.57;;;9.07;;
17347;SDS011;8791;50.876;4.342;2024-01-10T14:10:02;18.47;;;9.47;;
17347;SDS011;8791;50.876;4.342;2024-01-10T14:12:30;18.10;;;9.70;;
17347;SDS011;8791;50.876;4.342;2024-01-10T14:14:57;17.63;;;9.30;;
17347;SDS011;8791;50.876;4.342;2024-01-10T14:17:26;23.70;;;9.87;;
17347;SDS011;8791;50.876;4.342;2024-01-10T14:19:53;19.63;;;10.07;;
17347;SDS011;8791;50.876;4.342;2024-01-10T14:22:20;20.30;;;9.73;;
17347;SDS011;8791;50.876;4.342;2024-01-10T14:24:48;21.87;;;9.87;;
17347;SDS011;8791;50.876;4.342;2024-01-10T14:27:16;21.83;;;9.63;;
17347;SDS011;8791;50.876;4.342;2024-01-10T14:29:43;26.77;;;11.10;;
17347;SDS011;8791;50.876;4.342;2024-01-10T14:32:11;24.57;;;9.97;;
17347;SDS011;8791;50.876;4.342;2024-01-10T14:34:40;22.57;;;11.07;;
17347;SDS011;8791;50.876;4.342;2024-01-10T14:37:07;20.67;;;9.77;;
17347;SDS011;8791;50.876;4.342;2024-01-10T14:39:34;22.87;;;9.90;;
17347;SDS011;8791;50.876;4.342;2024-01-10T14:42:04;25.10;;;10.07;;
17347;SDS011;8791;50.876;4.342;2024-01-10T14:44:35;21.73;;;9.93;;
17347;SDS011;8791;50.876;4.342;2024-01-10T14:47:02;18.60;;;9.53;;
17347;SDS011;8791;50.876;4.342;2024-01-10T14:49:29;19.30;;;9.47;;
17347;SDS011;8791;50.876;4.342;2024-01-10T14:51:58;23.30;;;10.77;;